Time;durP1;ratioP1;P1;durP2;ratioP2;P2;SDS_P1;SDS_P2;PMS_P1;PMS_P2;Temp;Humidity;BMP_temperature;BMP_pressure;BME280_temperature;BME280_humidity;BME280_pressure;Samples;Min_cycle;Max_cycle;Signal;HPM_P1;HPM_P2
2023/05/31 00:02:19;;;;;;;8.73;4.75;;;11.90;99.90;;;;;;5006099;28;20070;-62
2023/05/31 00:04:45;;;;;;;8.88;4.10;;;11.80;99.90;;;;;;5011674;28;20516;-62
2023/05/31 00:07:10;;;;;;;11.35;4.55;;;11.80;99.90;;;;;;5018468;28;20030;-62
2023/05/31 00:09:36;;;;;;;7.57;3.97;;;11.80;99.90;;;;;;5011226;28;20037;-62
2023/05/31 00:12:01;;;;;;;9.52;4.47;;;11.80;99.90;;;;;;5020259;28;20037;-62
2023/05/31 00:14:27;;;;;;;8.95;4.32;;;11.70;99.90;;;;;;5001836;28;20128;-63
2023/05/31 00:16:53;;;;;;;6.85;4.07;;;11.70;99.90;;;;;;5012695;28;20037;-62
2023/05/31 00:19:19;;;;;;;6.82;4.25;;;11.70;99.90;;;;;;5013937;28;20129;-62
2023/05/31 00:21:45;;;;;;;8.00;4.30;;;11.70;99.90;;;;;;5017029;28;20499;-62
2023/05/31 00:24:15;;;;;;;9.40;4.35;;;11.60;99.90;;;;;;4995282;28;20038;-62
2023/05/31 00:26:41;;;;;;;9.90;3.88;;;11.60;99.90;;;;;;5001578;28;20045;-62
2023/05/31 00:29:06;;;;;;;7.50;4.07;;;11.60;99.90;;;;;;5006701;28;20053;-62
2023/05/31 00:31:32;;;;;;;8.43;4.05;;;11.60;99.90;;;;;;5012696;28;20033;-62
2023/05/31 00:33:58;;;;;;;10.55;4.60;;;11.60;99.90;;;;;;5013767;28;20088;-62
2023/05/31 00:36:23;;;;;;;8.55;4.53;;;11.60;99.90;;;;;;5019127;28;20041;-62
2023/05/31 00:38:49;;;;;;;7.85;4.30;;;11.60;99.90;;;;;;5014275;23;20084;-62
2023/05/31 00:41:15;;;;;;;6.72;4.07;;;11.50;99.90;;;;;;5024440;28;20441;-62
2023/05/31 00:43:41;;;;;;;9.02;4.57;;;11.50;99.90;;;;;;5020099;28;20069;-63
2023/05/31 00:46:11;;;;;;;7.78;4.28;;;11.50;99.90;;;;;;5027495;28;20100;-62
2023/05/31 00:48:38;;;;;;;8.60;4.28;;;11.50;99.90;;;;;;5015145;28;20062;-62
2023/05/31 00:51:05;;;;;;;7.68;3.95;;;11.50;99.90;;;;;;5015543;28;20065;-62
2023/05/31 00:53:31;;;;;;;10.25;3.95;;;11.40;99.90;;;;;;5022027;28;20120;-62
2023/05/31 00:55:59;;;;;;;9.10;4.35;;;11.40;99.90;;;;;;5021225;28;20120;-62
2023/05/31 00:58:26;;;;;;;7.63;4.10;;;11.40;99.90;;;;;;5028484;28;20069;-62
2023/05/31 01:00:52;;;;;;;8.82;4.75;;;11.40;99.90;;;;;;5017295;28;20050;-62
2023/05/31 01:03:19;;;;;;;10.27;4.40;;;11.40;99.90;;;;;;5014356;28;20643;-62
2023/05/31 01:05:45;;;;;;;7.10;4.35;;;11.30;99.90;;;;;;5015915;28;20105;-62
2023/05/31 01:08:11;;;;;;;8.93;4.40;;;11.30;99.90;;;;;;5022914;28;20547;-62
2023/05/31 01:10:36;;;;;;;8.45;4.63;;;11.30;99.90;;;;;;5020932;28;20035;-62
2023/05/31 01:13:08;;;;;;;8.30;4.47;;;11.30;99.90;;;;;;5023522;28;20048;-62
2023/05/31 01:15:44;;;;;;;8.95;4.78;;;11.30;99.90;;;;;;5028318;28;20465;-62
2023/05/31 01:18:44;;;;;;;8.57;4.20;;;11.20;99.90;;;;;;5013107;28;20091;-62
2023/05/31 01:21:13;;;;;;;8.80;4.70;;;11.30;99.90;;;;;;4965071;28;20111;-62
2023/05/31 01:23:41;;;;;;;9.45;4.97;;;11.20;99.90;;;;;;5024537;28;20474;-62
2023/05/31 01:26:28;;;;;;;12.25;5.20;;;11.20;99.90;;;;;;5020907;28;20503;-62
2023/05/31 01:28:59;;;;;;;8.77;4.68;;;11.20;99.90;;;;;;5008505;28;20062;-62
2023/05/31 01:31:26;;;;;;;9.45;5.30;;;11.20;99.90;;;;;;5004776;28;20432;-63
2023/05/31 01:33:53;;;;;;;7.72;4.25;;;11.20;99.90;;;;;;5021737;28;20060;-63
2023/05/31 01:36:18;;;;;;;9.18;4.88;;;11.10;99.90;;;;;;5010872;28;20077;-62
2023/05/31 01:38:44;;;;;;;9.68;4.97;;;11.10;99.90;;;;;;5023660;28;20487;-62
2023/05/31 01:41:12;;;;;;;11.98;5.13;;;11.10;99.90;;;;;;5023887;28;20118;-62
2023/05/31 01:43:43;;;;;;;10.57;5.00;;;11.10;99.90;;;;;;5023738;28;20438;-62
2023/05/31 01:46:12;;;;;;;10.02;5.20;;;11.10;99.90;;;;;;5015782;28;20044;-62
2023/05/31 01:48:40;;;;;;;11.85;5.10;;;11.10;99.90;;;;;;5021472;28;20061;-62
2023/05/31 01:51:08;;;;;;;9.10;5.13;;;11.10;99.90;;;;;;5005706;28;20045;-62
2023/05/31 01:53:34;;;;;;;9.40;5.20;;;11.10;99.90;;;;;;5016102;28;20041;-63
2023/05/31 01:56:02;;;;;;;9.95;5.13;;;11.10;99.90;;;;;;5017549;28;20126;-63
2023/05/31 01:58:30;;;;;;;7.95;4.95;;;11.00;99.90;;;;;;5018832;28;20034;-62
2023/05/31 02:00:57;;;;;;;10.63;5.68;;;11.00;99.90;;;;;;5023177;28;20046;-62
2023/05/31 02:03:23;;;;;;;10.20;6.18;;;11.00;99.90;;;;;;5021497;28;20136;-63
2023/05/31 02:05:55;;;;;;;11.38;5.43;;;11.00;99.90;;;;;;5020171;28;20080;-62
2023/05/31 02:08:22;;;;;;;10.27;5.13;;;11.00;99.90;;;;;;5025966;28;20376;-63
2023/05/31 02:10:48;;;;;;;9.75;5.63;;;11.00;99.90;;;;;;5021032;28;20125;-62
2023/05/31 02:13:13;;;;;;;10.95;5.40;;;11.00;99.90;;;;;;5032010;28;20304;-62
2023/05/31 02:15:41;;;;;;;8.27;4.82;;;10.90;99.90;;;;;;5019629;28;20030;-62
2023/05/31 02:18:07;;;;;;;11.55;5.32;;;10.90;99.90;;;;;;4998836;28;20452;-63
2023/05/31 02:20:33;;;;;;;9.10;5.53;;;10.90;99.90;;;;;;5019482;28;20061;-62
2023/05/31 02:22:59;;;;;;;9.82;4.43;;;10.90;99.90;;;;;;5016609;28;20050;-62
2023/05/31 02:25:25;;;;;;;11.52;5.32;;;10.90;99.90;;;;;;5001368;28;20525;-62
2023/05/31 02:27:51;;;;;;;8.63;5.13;;;10.80;99.90;;;;;;5014169;28;20038;-62
2023/05/31 02:30:17;;;;;;;11.32;5.47;;;10.80;99.90;;;;;;5025790;28;20029;-62
2023/05/31 02:32:42;;;;;;;11.18;5.68;;;10.80;99.90;;;;;;5014370;28;20029;-63
2023/05/31 02:35:10;;;;;;;8.88;5.22;;;10.80;99.90;;;;;;5003991;28;20087;-62
2023/05/31 02:37:37;;;;;;;9.88;4.95;;;10.80;99.90;;;;;;5022526;28;20172;-62
2023/05/31 02:40:08;;;;;;;9.18;4.97;;;10.80;99.90;;;;;;5023713;28;20120;-63
2023/05/31 02:42:39;;;;;;;8.70;5.30;;;10.80;99.90;;;;;;5028480;28;20030;-62
2023/05/31 02:45:06;;;;;;;9.77;5.25;;;10.70;99.90;;;;;;5018820;28;20037;-62
2023/05/31 02:47:32;;;;;;;10.20;5.65;;;10.70;99.90;;;;;;5026811;28;20056;-63
2023/05/31 02:49:58;;;;;;;9.98;5.35;;;10.70;99.90;;;;;;5017903;28;20499;-62
2023/05/31 02:52:24;;;;;;;11.50;5.43;;;10.70;99.90;;;;;;5016641;28;20116;-62
2023/05/31 02:54:50;;;;;;;9.13;5.30;;;10.70;99.90;;;;;;5009655;28;20041;-62
2023/05/31 02:57:16;;;;;;;10.23;5.25;;;10.70;99.90;;;;;;5016437;28;20030;-62
2023/05/31 02:59:43;;;;;;;10.80;5.50;;;10.70;99.90;;;;;;5008087;28;20517;-63
2023/05/31 03:02:09;;;;;;;11.00;5.63;;;10.70;99.90;;;;;;5013509;28;20121;-62
2023/05/31 03:04:35;;;;;;;13.25;5.65;;;10.60;99.90;;;;;;5020751;28;20447;-63
2023/05/31 03:07:01;;;;;;;12.35;6.18;;;10.60;99.90;;;;;;5023305;28;20458;-62
2023/05/31 03:09:27;;;;;;;13.00;5.93;;;10.60;99.90;;;;;;5019629;28;20088;-63
2023/05/31 03:11:52;;;;;;;10.65;5.90;;;10.60;99.90;;;;;;5027605;28;20385;-62
2023/05/31 03:14:18;;;;;;;11.43;5.43;;;10.60;99.90;;;;;;5017557;28;20049;-62
2023/05/31 03:16:45;;;;;;;11.82;6.20;;;10.60;99.90;;;;;;5028443;28;20033;-63
2023/05/31 03:19:12;;;;;;;11.95;5.68;;;10.60;99.90;;;;;;4998809;28;20044;-63
2023/05/31 03:21:38;;;;;;;9.60;5.63;;;10.60;99.90;;;;;;5023255;28;20040;-63
2023/05/31 03:24:04;;;;;;;11.18;6.10;;;10.50;99.90;;;;;;5017328;28;20037;-62
2023/05/31 03:26:30;;;;;;;11.00;5.90;;;10.50;99.90;;;;;;5020150;28;20076;-62
2023/05/31 03:28:56;;;;;;;10.23;5.63;;;10.50;99.90;;;;;;5026704;28;20504;-62
2023/05/31 03:31:21;;;;;;;12.93;5.95;;;10.50;99.90;;;;;;4996268;28;20038;-63
2023/05/31 03:33:47;;;;;;;11.73;6.60;;;10.50;99.90;;;;;;5022085;28;20510;-62
2023/05/31 03:36:13;;;;;;;14.57;6.45;;;10.50;99.90;;;;;;5022545;28;20073;-62
2023/05/31 03:38:38;;;;;;;13.30;6.10;;;10.50;99.90;;;;;;5026846;28;20064;-62
2023/05/31 03:41:04;;;;;;;11.57;5.43;;;10.50;99.90;;;;;;5017545;28;20044;-62
2023/05/31 03:43:30;;;;;;;11.60;5.78;;;10.50;99.90;;;;;;5024439;28;20120;-63
2023/05/31 03:46:00;;;;;;;10.90;5.43;;;10.50;99.90;;;;;;5017866;28;20068;-63
2023/05/31 03:48:28;;;;;;;15.63;6.22;;;10.50;99.90;;;;;;5023299;28;20036;-62
2023/05/31 03:50:55;;;;;;;10.52;6.35;;;10.50;99.90;;;;;;5019469;28;20510;-62
2023/05/31 03:53:21;;;;;;;11.40;6.10;;;10.50;99.90;;;;;;4999750;28;20048;-62
2023/05/31 03:55:47;;;;;;;10.88;6.30;;;10.50;99.90;;;;;;5004856;28;20034;-62
2023/05/31 03:58:12;;;;;;;11.27;6.10;;;10.50;99.90;;;;;;5017322;28;20133;-62
2023/05/31 04:00:38;;;;;;;11.23;5.47;;;10.50;99.90;;;;;;5007083;28;20040;-62
2023/05/31 04:03:04;;;;;;;10.50;6.57;;;10.50;99.90;;;;;;4995771;28;20456;-62
2023/05/31 04:05:30;;;;;;;11.80;5.60;;;10.50;99.90;;;;;;4998456;28;20042;-62
2023/05/31 04:07:56;;;;;;;13.60;6.03;;;10.50;99.90;;;;;;5019250;28;20049;-62
2023/05/31 04:10:22;;;;;;;11.05;5.53;;;10.50;99.90;;;;;;4998294;28;20500;-62
2023/05/31 04:12:47;;;;;;;10.95;6.43;;;10.50;99.90;;;;;;5022963;28;20057;-63
2023/05/31 04:15:13;;;;;;;10.65;5.93;;;10.50;99.90;;;;;;5016431;28;20503;-62
2023/05/31 04:17:39;;;;;;;12.77;6.60;;;10.50;99.90;;;;;;5027470;28;20028;-63
2023/05/31 04:20:08;;;;;;;12.57;6.18;;;10.50;99.90;;;;;;5004088;28;20045;-62
2023/05/31 04:22:36;;;;;;;14.10;6.60;;;10.50;99.90;;;;;;5021686;28;20033;-62
2023/05/31 04:25:02;;;;;;;14.52;7.18;;;10.50;99.90;;;;;;5016697;28;20482;-63
2023/05/31 04:27:32;;;;;;;11.57;6.82;;;10.60;99.90;;;;;;5017891;28;20392;-63
2023/05/31 04:29:58;;;;;;;16.10;6.82;;;10.60;99.90;;;;;;5008044;28;20033;-62
2023/05/31 04:32:27;;;;;;;15.27;7.30;;;10.60;99.90;;;;;;5003920;28;20029;-62
2023/05/31 04:34:57;;;;;;;12.98;7.25;;;10.60;99.90;;;;;;5017760;28;20056;-63
2023/05/31 04:37:26;;;;;;;16.70;7.38;;;10.60;99.90;;;;;;5024457;28;20396;-62
2023/05/31 04:39:52;;;;;;;15.82;7.93;;;10.60;99.90;;;;;;5013614;28;20042;-63
2023/05/31 04:42:18;;;;;;;13.43;7.93;;;10.70;99.90;;;;;;5029469;28;20041;-63
2023/05/31 04:44:45;;;;;;;15.93;7.95;;;10.70;99.90;;;;;;5015954;28;20045;-63
2023/05/31 04:47:11;;;;;;;17.90;8.85;;;10.70;99.90;;;;;;5022451;28;20042;-63
2023/05/31 04:49:36;;;;;;;17.95;8.98;;;10.70;99.90;;;;;;5027222;28;20037;-63
2023/05/31 04:52:02;;;;;;;21.02;9.38;;;10.70;99.90;;;;;;5008686;28;20099;-63
2023/05/31 04:54:28;;;;;;;16.48;9.10;;;10.70;99.90;;;;;;5010270;28;20046;-63
2023/05/31 04:56:54;;;;;;;19.38;9.15;;;10.70;99.90;;;;;;5017899;28;20049;-63
2023/05/31 04:59:20;;;;;;;17.80;8.63;;;10.70;99.90;;;;;;5032479;28;20050;-63
2023/05/31 05:01:45;;;;;;;17.13;9.23;;;10.80;99.90;;;;;;5025493;28;20121;-62
2023/05/31 05:04:11;;;;;;;20.98;8.65;;;10.80;99.90;;;;;;5017786;28;20037;-62
2023/05/31 05:06:37;;;;;;;18.45;9.25;;;10.90;99.90;;;;;;5024885;28;20048;-63
2023/05/31 05:09:03;;;;;;;16.83;8.30;;;10.90;99.90;;;;;;5019096;28;20044;-63
2023/05/31 05:11:28;;;;;;;22.77;10.13;;;10.80;99.90;;;;;;5029850;28;20034;-62
2023/05/31 05:13:54;;;;;;;21.05;9.30;;;10.90;99.90;;;;;;5019633;28;20112;-63
2023/05/31 05:16:20;;;;;;;20.45;9.13;;;10.90;99.90;;;;;;5032384;28;20044;-63
2023/05/31 05:18:45;;;;;;;20.02;9.38;;;10.90;99.90;;;;;;5025402;28;20033;-63
2023/05/31 05:21:11;;;;;;;21.67;10.55;;;11.00;99.90;;;;;;5017841;28;20033;-62
2023/05/31 05:23:37;;;;;;;20.92;9.25;;;11.00;99.90;;;;;;5020641;28;20492;-62
2023/05/31 05:26:03;;;;;;;18.60;9.23;;;11.00;99.90;;;;;;5025466;28;20140;-62
2023/05/31 05:28:29;;;;;;;21.58;9.38;;;11.10;99.90;;;;;;5025994;28;20126;-62
2023/05/31 05:30:55;;;;;;;18.55;8.90;;;11.10;99.90;;;;;;5015431;28;20469;-62
2023/05/31 05:33:21;;;;;;;22.52;9.90;;;11.10;99.90;;;;;;5018862;28;20037;-61
2023/05/31 05:35:47;;;;;;;20.20;9.02;;;11.10;99.90;;;;;;5010448;28;20073;-60
2023/05/31 05:38:12;;;;;;;17.08;8.65;;;11.80;99.90;;;;;;5025189;28;20037;-61
2023/05/31 05:40:38;;;;;;;17.17;9.40;;;11.20;99.90;;;;;;5019687;28;20377;-61
2023/05/31 05:43:04;;;;;;;17.98;8.63;;;11.20;99.90;;;;;;5026328;28;20033;-65
2023/05/31 05:45:30;;;;;;;16.35;9.05;;;11.20;99.90;;;;;;5021957;28;20029;-61
2023/05/31 05:47:56;;;;;;;20.90;8.95;;;11.40;99.90;;;;;;5014580;28;20572;-65
2023/05/31 05:50:21;;;;;;;19.48;8.93;;;11.30;99.90;;;;;;5023615;28;20392;-61
2023/05/31 05:52:47;;;;;;;19.98;9.98;;;11.40;99.90;;;;;;5016698;28;20041;-60
2023/05/31 05:55:13;;;;;;;18.08;8.80;;;11.40;99.90;;;;;;5025233;28;20041;-61
2023/05/31 05:57:38;;;;;;;19.23;10.10;;;11.40;99.90;;;;;;5008499;28;20041;-61
2023/05/31 06:00:10;;;;;;;23.20;9.32;;;11.50;99.90;;;;;;5025054;28;20048;-61
2023/05/31 06:02:35;;;;;;;16.97;9.77;;;11.50;99.90;;;;;;5027696;28;20041;-60
2023/05/31 06:05:01;;;;;;;20.77;9.57;;;11.50;99.90;;;;;;5011477;28;20529;-60
2023/05/31 06:07:26;;;;;;;17.05;9.73;;;11.60;99.90;;;;;;5023865;28;20026;-62
2023/05/31 06:09:53;;;;;;;18.20;9.65;;;11.60;99.90;;;;;;5022526;28;20556;-61
2023/05/31 06:12:18;;;;;;;23.00;11.13;;;11.70;99.90;;;;;;5011109;28;20045;-65
2023/05/31 06:14:44;;;;;;;17.45;9.50;;;11.70;99.90;;;;;;5018367;28;20040;-60
2023/05/31 06:17:10;;;;;;;18.27;9.85;;;11.80;99.90;;;;;;5026682;28;20119;-61
2023/05/31 06:19:35;;;;;;;17.58;9.32;;;11.80;99.90;;;;;;5027008;28;20121;-61
2023/05/31 06:22:01;;;;;;;17.40;9.48;;;11.80;99.90;;;;;;5020090;28;20565;-60
2023/05/31 06:24:27;;;;;;;19.55;9.90;;;11.90;99.90;;;;;;5027644;28;20045;-63
2023/05/31 06:26:52;;;;;;;20.70;9.82;;;11.90;99.90;;;;;;5023718;28;20141;-61
2023/05/31 06:29:18;;;;;;;18.55;9.77;;;12.00;99.90;;;;;;5024811;28;20052;-60
2023/05/31 06:31:44;;;;;;;19.75;9.70;;;12.00;99.90;;;;;;4987063;28;20045;-61
2023/05/31 06:34:09;;;;;;;17.70;9.02;;;12.00;99.90;;;;;;5029193;28;20029;-61
2023/05/31 06:36:35;;;;;;;22.10;9.88;;;12.10;99.90;;;;;;4987173;28;20096;-64
2023/05/31 06:39:01;;;;;;;17.17;8.95;;;12.10;99.90;;;;;;5022087;28;20098;-62
2023/05/31 06:41:27;;;;;;;18.40;9.27;;;12.20;99.90;;;;;;5002986;28;20049;-62
2023/05/31 06:43:53;;;;;;;14.82;8.50;;;12.30;99.90;;;;;;5028916;28;20384;-62
2023/05/31 06:46:18;;;;;;;15.90;8.07;;;12.30;99.90;;;;;;5010696;28;20070;-62
2023/05/31 06:48:44;;;;;;;15.38;8.82;;;12.30;99.90;;;;;;5005941;28;20041;-63
2023/05/31 06:51:10;;;;;;;17.20;8.80;;;12.40;99.90;;;;;;5003625;28;20034;-62
2023/05/31 06:53:36;;;;;;;17.88;7.97;;;12.50;99.90;;;;;;5026758;28;20069;-63
2023/05/31 06:56:02;;;;;;;12.88;7.75;;;12.50;99.90;;;;;;5026551;28;20045;-62
2023/05/31 06:58:33;;;;;;;16.65;8.20;;;12.50;99.90;;;;;;5025548;28;20033;-63
2023/05/31 07:00:59;;;;;;;15.63;7.68;;;12.60;99.90;;;;;;5007877;28;20415;-62
2023/05/31 07:03:25;;;;;;;15.27;7.82;;;12.70;99.90;;;;;;5014637;28;20038;-62
2023/05/31 07:05:51;;;;;;;17.90;9.20;;;12.70;99.90;;;;;;5024970;28;20112;-62
2023/05/31 07:08:16;;;;;;;16.45;7.95;;;12.80;99.90;;;;;;5014760;28;20525;-63
2023/05/31 07:10:42;;;;;;;15.75;7.93;;;12.80;99.90;;;;;;5022176;28;20041;-63
2023/05/31 07:13:08;;;;;;;14.65;7.30;;;12.90;99.90;;;;;;5025570;28;20029;-63
2023/05/31 07:15:33;;;;;;;14.77;7.97;;;13.00;99.90;;;;;;5025667;28;20037;-63
2023/05/31 07:17:59;;;;;;;14.50;7.50;;;13.00;99.90;;;;;;5028139;28;20042;-63
2023/05/31 07:20:25;;;;;;;15.60;8.18;;;13.10;99.90;;;;;;5009183;28;20053;-63
2023/05/31 07:22:51;;;;;;;15.75;8.40;;;13.20;99.90;;;;;;5024922;28;20033;-63
2023/05/31 07:25:17;;;;;;;15.05;7.75;;;13.20;99.90;;;;;;5001091;28;20042;-62
2023/05/31 07:27:43;;;;;;;18.38;7.88;;;13.30;99.90;;;;;;5005767;28;20394;-62
2023/05/31 07:30:09;;;;;;;16.63;7.68;;;13.30;99.90;;;;;;5004052;28;20052;-63
2023/05/31 07:32:37;;;;;;;17.50;8.35;;;13.40;99.90;;;;;;5009233;28;20025;-63
2023/05/31 07:35:03;;;;;;;19.83;8.20;;;13.50;99.90;;;;;;5025369;28;20487;-63
2023/05/31 07:37:29;;;;;;;13.77;7.50;;;13.50;99.90;;;;;;5023447;28;20101;-63
2023/05/31 07:39:55;;;;;;;15.18;7.25;;;13.60;99.90;;;;;;5015570;28;20077;-63
2023/05/31 07:42:20;;;;;;;13.55;7.28;;;13.70;99.90;;;;;;5029814;28;20124;-63
2023/05/31 07:44:48;;;;;;;15.02;7.60;;;13.70;99.90;;;;;;5016772;28;20440;-63
2023/05/31 07:47:15;;;;;;;16.23;7.63;;;13.80;99.90;;;;;;5015060;28;20092;-63
2023/05/31 07:49:40;;;;;;;14.02;7.63;;;13.90;99.90;;;;;;5017016;28;20041;-63
2023/05/31 07:52:07;;;;;;;16.42;7.65;;;14.00;99.90;;;;;;4998748;28;20404;-63
2023/05/31 07:54:32;;;;;;;12.55;6.97;;;14.00;99.90;;;;;;5026031;28;20041;-63
2023/05/31 07:56:58;;;;;;;14.02;7.00;;;14.10;99.90;;;;;;5016987;28;20034;-63
2023/05/31 07:59:24;;;;;;;14.30;6.90;;;14.20;99.90;;;;;;5028851;28;20116;-63
2023/05/31 08:01:50;;;;;;;15.45;7.43;;;14.30;99.90;;;;;;4999966;28;20053;-62
2023/05/31 08:04:16;;;;;;;12.23;6.80;;;14.40;99.90;;;;;;5022827;28;20041;-62
2023/05/31 08:06:42;;;;;;;11.05;6.30;;;14.50;99.90;;;;;;4999109;28;20134;-63
2023/05/31 08:09:08;;;;;;;14.65;6.28;;;14.60;99.90;;;;;;5023861;28;20041;-63
2023/05/31 08:11:35;;;;;;;11.90;6.13;;;14.60;99.90;;;;;;5004362;28;20072;-63
2023/05/31 08:14:05;;;;;;;12.07;6.80;;;14.80;99.90;;;;;;5020289;28;20049;-63
2023/05/31 08:16:32;;;;;;;13.15;6.43;;;15.00;99.90;;;;;;5011120;28;20044;-63
2023/05/31 08:18:58;;;;;;;13.52;5.85;;;15.20;99.90;;;;;;5006767;28;20457;-63
2023/05/31 08:21:24;;;;;;;10.73;5.43;;;15.50;99.90;;;;;;5024573;28;20061;-63
2023/05/31 08:23:50;;;;;;;10.52;5.80;;;15.70;99.90;;;;;;5028758;28;20037;-63
2023/05/31 08:26:15;;;;;;;12.80;5.85;;;16.00;99.90;;;;;;5028873;28;20445;-63
2023/05/31 08:28:41;;;;;;;9.77;5.28;;;16.40;99.90;;;;;;5016535;28;20033;-63
2023/05/31 08:31:07;;;;;;;10.85;5.32;;;16.70;99.90;;;;;;5019091;28;20072;-63
2023/05/31 08:33:32;;;;;;;11.00;4.75;;;17.00;99.90;;;;;;5013189;28;20033;-63
2023/05/31 08:35:59;;;;;;;9.68;5.20;;;17.30;99.90;;;;;;5021061;28;20188;-63
2023/05/31 08:38:26;;;;;;;11.30;4.93;;;17.50;99.90;;;;;;5030527;28;20029;-63
2023/05/31 08:40:52;;;;;;;10.05;5.32;;;17.80;99.90;;;;;;5020742;28;20041;-63
2023/05/31 08:43:21;;;;;;;10.02;5.68;;;18.10;99.90;;;;;;5028003;28;20044;-63
2023/05/31 08:45:49;;;;;;;10.95;5.30;;;18.20;99.90;;;;;;5027823;28;20041;-63
2023/05/31 08:48:28;;;;;;;10.88;5.10;;;18.50;99.90;;;;;;5022689;28;20033;-63
2023/05/31 08:50:54;;;;;;;9.38;4.85;;;18.80;99.90;;;;;;5028476;28;20131;-63
2023/05/31 08:53:22;;;;;;;9.90;4.97;;;19.10;99.90;;;;;;5007525;28;20053;-63
2023/05/31 08:55:48;;;;;;;12.55;4.80;;;19.30;99.90;;;;;;5029865;28;20042;-65
2023/05/31 08:58:14;;;;;;;12.02;4.75;;;19.40;99.90;;;;;;5020063;28;20112;-63
2023/05/31 09:00:41;;;;;;;10.90;4.43;;;19.70;99.90;;;;;;5028162;28;20072;-63
2023/05/31 09:03:07;;;;;;;9.10;4.72;;;20.00;99.90;;;;;;4993514;28;20045;-63
2023/05/31 09:05:33;;;;;;;9.50;4.57;;;20.10;99.90;;;;;;5022320;28;20120;-63
2023/05/31 09:08:02;;;;;;;14.65;4.97;;;20.30;99.90;;;;;;5004323;28;20081;-64
2023/05/31 09:10:28;;;;;;;9.00;4.78;;;20.50;99.90;;;;;;5021959;28;20030;-64
2023/05/31 09:12:54;;;;;;;10.68;4.75;;;20.60;99.90;;;;;;5029850;28;20041;-64
2023/05/31 09:15:23;;;;;;;10.30;4.30;;;20.70;99.90;;;;;;5020680;28;20045;-64
2023/05/31 09:17:50;;;;;;;8.52;4.30;;;20.90;99.90;;;;;;5027703;28;20041;-64
2023/05/31 09:20:16;;;;;;;8.70;4.70;;;21.00;99.90;;;;;;4996651;28;20452;-64
2023/05/31 09:22:46;;;;;;;10.73;4.90;;;21.20;99.90;;;;;;5024857;28;20037;-64
2023/05/31 09:25:12;;;;;;;6.35;4.57;;;21.40;99.90;;;;;;5024783;28;20072;-64
2023/05/31 09:27:39;;;;;;;9.07;4.15;;;21.60;99.90;;;;;;5026983;28;20038;-64
2023/05/31 09:30:10;;;;;;;9.02;4.35;;;21.70;99.90;;;;;;5028282;28;20420;-64
2023/05/31 09:32:36;;;;;;;9.27;4.07;;;21.70;99.90;;;;;;4993482;28;20083;-64
2023/05/31 09:35:13;;;;;;;11.32;5.25;;;21.90;99.90;;;;;;5027239;28;20478;-64
2023/05/31 09:37:48;;;;;;;9.43;4.30;;;22.00;99.40;;;;;;5028396;28;20392;-64
2023/05/31 09:40:25;;;;;;;10.73;5.00;;;22.10;99.70;;;;;;4995915;28;20103;-64
2023/05/31 09:42:51;;;;;;;7.53;4.95;;;22.20;99.90;;;;;;5028533;28;20041;-63
2023/05/31 09:45:18;;;;;;;8.55;4.28;;;22.30;99.90;;;;;;5021760;28;20037;-63
2023/05/31 09:47:44;;;;;;;6.55;4.13;;;22.50;99.90;;;;;;5014673;28;20033;-63
2023/05/31 09:50:21;;;;;;;8.25;4.35;;;22.60;99.50;;;;;;5015879;28;20702;-64
2023/05/31 09:52:49;;;;;;;7.18;3.97;;;22.80;98.50;;;;;;5019155;28;20041;-64
2023/05/31 09:55:16;;;;;;;10.60;4.85;;;22.90;99.20;;;;;;5028758;28;20117;-64
2023/05/31 09:57:46;;;;;;;7.38;4.22;;;23.00;98.70;;;;;;5019673;28;20049;-64
2023/05/31 10:00:20;;;;;;;9.65;4.45;;;23.10;98.60;;;;;;5027110;28;20443;-64
2023/05/31 10:02:51;;;;;;;9.70;4.30;;;23.10;98.00;;;;;;5008131;28;20064;-64
2023/05/31 10:05:18;;;;;;;13.03;4.73;;;23.30;97.80;;;;;;5017044;28;20037;-64
2023/05/31 10:07:46;;;;;;;9.10;4.55;;;23.40;97.70;;;;;;5028147;28;20037;-64
2023/05/31 10:10:13;;;;;;;8.60;4.40;;;23.50;97.40;;;;;;5023917;28;20033;-64
2023/05/31 10:12:56;;;;;;;9.30;4.32;;;23.50;97.20;;;;;;5025030;28;20411;-64
2023/05/31 10:15:26;;;;;;;8.80;4.25;;;23.70;96.30;;;;;;5019324;28;20492;-64
2023/05/31 10:17:58;;;;;;;9.60;4.50;;;23.80;97.00;;;;;;5029985;28;20300;-64
2023/05/31 10:20:28;;;;;;;13.10;4.55;;;24.00;95.80;;;;;;4998357;28;20042;-61
2023/05/31 10:23:00;;;;;;;9.33;4.67;;;23.90;96.10;;;;;;5026647;28;20037;-61
2023/05/31 10:25:44;;;;;;;11.48;4.53;;;24.00;95.60;;;;;;5022192;28;20054;-62
2023/05/31 10:28:15;;;;;;;8.38;4.13;;;24.00;95.60;;;;;;5018395;28;20480;-62
2023/05/31 10:30:43;;;;;;;10.48;4.32;;;24.10;95.90;;;;;;5001710;28;20049;-63
2023/05/31 10:33:12;;;;;;;10.77;4.78;;;24.20;95.40;;;;;;4995419;28;20437;-63
2023/05/31 10:35:37;;;;;;;6.78;3.85;;;24.30;94.90;;;;;;5021040;28;20446;-62
2023/05/31 10:38:03;;;;;;;9.77;4.47;;;24.40;95.00;;;;;;5010883;28;20113;-63
2023/05/31 10:40:46;;;;;;;9.90;4.25;;;24.40;94.60;;;;;;5026007;28;20104;-63
2023/05/31 10:43:22;;;;;;;8.43;4.63;;;24.50;93.80;;;;;;5026171;28;20040;-63
2023/05/31 10:45:56;;;;;;;8.82;4.00;;;24.50;93.10;;;;;;5018263;28;20533;-62
2023/05/31 10:48:40;;;;;;;9.32;4.30;;;24.60;93.30;;;;;;5017586;28;20052;-63
2023/05/31 10:51:06;;;;;;;8.35;4.50;;;24.80;92.60;;;;;;5017915;28;20036;-62
2023/05/31 10:53:37;;;;;;;10.23;4.45;;;24.90;93.30;;;;;;5025922;28;20041;-62
2023/05/31 10:56:22;;;;;;;9.20;4.43;;;25.00;92.60;;;;;;5022572;28;20399;-63
2023/05/31 10:58:51;;;;;;;10.52;4.63;;;25.00;91.30;;;;;;5011189;28;20052;-63
2023/05/31 11:01:21;;;;;;;8.90;4.07;;;25.00;91.80;;;;;;5005936;28;20060;-62
2023/05/31 11:03:52;;;;;;;11.85;4.15;;;25.10;91.90;;;;;;5021149;28;20049;-62
2023/05/31 11:06:32;;;;;;;9.02;4.10;;;25.20;91.30;;;;;;5007854;28;20041;-62
2023/05/31 11:09:05;;;;;;;10.95;4.18;;;25.20;90.90;;;;;;5005856;28;20041;-62
2023/05/31 11:11:31;;;;;;;9.02;4.38;;;25.30;90.90;;;;;;5028172;28;20029;-62
2023/05/31 11:14:06;;;;;;;10.88;4.05;;;25.40;90.90;;;;;;5006363;28;20400;-63
2023/05/31 11:16:33;;;;;;;7.55;4.15;;;25.60;90.20;;;;;;5028685;28;20044;-62
2023/05/31 11:19:07;;;;;;;6.72;3.60;;;25.70;90.40;;;;;;5002106;28;20057;-63
2023/05/31 11:21:53;;;;;;;11.02;4.20;;;25.80;89.40;;;;;;5013390;28;20041;-62
2023/05/31 11:24:47;;;;;;;10.77;3.90;;;25.80;87.90;;;;;;5013537;28;20121;-62
2023/05/31 11:27:13;;;;;;;11.30;4.20;;;25.80;88.40;;;;;;5021896;28;20050;-63
2023/05/31 11:29:48;;;;;;;10.52;4.25;;;25.80;88.10;;;;;;5006310;28;20040;-63
2023/05/31 11:32:13;;;;;;;7.20;3.97;;;25.80;86.00;;;;;;5001168;28;20034;-63
2023/05/31 11:35:02;;;;;;;10.55;3.70;;;25.80;86.70;;;;;;5024441;28;20092;-63
2023/05/31 11:37:28;;;;;;;8.13;3.88;;;25.80;85.30;;;;;;5018352;28;20488;-63
2023/05/31 11:39:55;;;;;;;8.00;3.72;;;25.70;85.50;;;;;;5023318;28;20096;-62
2023/05/31 11:42:23;;;;;;;8.20;4.05;;;25.70;85.60;;;;;;5029665;28;20545;-62
2023/05/31 11:44:50;;;;;;;9.50;3.83;;;25.70;85.20;;;;;;5017135;28;20035;-63
2023/05/31 11:47:21;;;;;;;7.85;3.45;;;25.70;85.30;;;;;;5015247;28;20073;-62
2023/05/31 11:49:48;;;;;;;9.45;4.35;;;25.70;84.20;;;;;;4999154;28;20520;-63
2023/05/31 11:52:20;;;;;;;6.53;3.58;;;25.70;84.10;;;;;;5016763;28;20109;-63
2023/05/31 11:54:48;;;;;;;7.15;3.85;;;25.70;84.20;;;;;;5002150;28;20057;-64
2023/05/31 11:57:16;;;;;;;6.78;3.83;;;25.80;84.20;;;;;;5017714;28;20547;-63
2023/05/31 11:59:42;;;;;;;5.95;3.40;;;25.80;83.50;;;;;;5023063;28;20042;-63
2023/05/31 12:02:10;;;;;;;6.63;3.75;;;25.90;83.30;;;;;;4986683;28;20095;-63
2023/05/31 12:04:36;;;;;;;8.90;3.70;;;25.90;83.50;;;;;;4995365;28;20124;-63
2023/05/31 12:07:04;;;;;;;7.35;3.88;;;26.00;83.10;;;;;;5003572;28;20041;-63
2023/05/31 12:09:30;;;;;;;6.55;3.45;;;26.10;82.50;;;;;;4999117;28;20060;-63
2023/05/31 12:11:56;;;;;;;6.10;3.53;;;26.10;82.40;;;;;;5025213;28;20038;-63
2023/05/31 12:14:25;;;;;;;9.90;3.72;;;26.10;82.20;;;;;;5024177;28;20029;-63
2023/05/31 12:16:52;;;;;;;6.53;3.10;;;26.20;81.50;;;;;;5023777;28;20074;-63
2023/05/31 12:19:17;;;;;;;7.82;3.55;;;26.30;81.00;;;;;;5007885;28;20442;-63
2023/05/31 12:21:43;;;;;;;7.32;3.55;;;26.30;81.20;;;;;;5020241;28;20037;-63
2023/05/31 12:24:13;;;;;;;6.45;3.08;;;26.20;81.50;;;;;;5020897;28;20117;-63
2023/05/31 12:26:39;;;;;;;5.07;3.03;;;26.20;81.40;;;;;;5004933;28;20056;-63
2023/05/31 12:29:05;;;;;;;7.10;3.53;;;26.20;81.50;;;;;;5026693;28;20034;-63
2023/05/31 12:31:34;;;;;;;9.93;4.15;;;26.20;82.20;;;;;;5011746;28;20559;-63
2023/05/31 12:34:32;;;;;;;7.60;3.97;;;26.20;82.00;;;;;;5024476;28;20045;-63
2023/05/31 12:37:02;;;;;;;11.30;4.18;;;26.10;81.70;;;;;;5005192;28;20085;-63
2023/05/31 12:39:28;;;;;;;8.97;4.20;;;26.10;82.40;;;;;;5013272;28;20061;-61
2023/05/31 12:41:53;;;;;;;8.10;3.75;;;26.10;82.60;;;;;;5025736;28;20573;-61
2023/05/31 12:44:23;;;;;;;8.32;4.10;;;26.20;82.60;;;;;;5021621;28;20057;-63